Fairview, Montana
Current Conditions -  °F | °C
As of 5:35 PM on Saturday 25 Oct 2014 (Local Time) from KSDY Reporting Station
Clear Clear  
Wind Chill: 16°   Ceiling: Unl
Heat Index: 16°   Visibility: 10mi
Dew Point:   Wind: 10mph
Humidity: 34%   Direction: 90°E
Pressure: 29.9"   Gusts: NA
Location:  47.86°N, 104.04°W
Report Text: KSDY 252335Z AUTO 09009KT 10SM CLR 16/00 A2990 RMK AO1
Loading
Personal Weather Stations






























Interactive Weather Map
Tropical Storm Tracking
New forecast layout! Learn more

10-Day Weather Forecast

Advertisements
Track Severe Weather on mobile